createdAt,value
2018-09-02T00:02:05.340Z,2.73
2018-09-02T00:04:34.590Z,3.13
2018-09-02T00:07:03.559Z,3.13
2018-09-02T00:09:33.599Z,3.37
2018-09-02T00:12:02.220Z,3.17
2018-09-02T00:14:31.770Z,3.37
2018-09-02T00:17:01.319Z,3.50
2018-09-02T00:19:29.962Z,4.13
2018-09-02T00:21:58.761Z,3.83
2018-09-02T00:24:27.326Z,5.90
2018-09-02T00:26:55.922Z,5.93
2018-09-02T00:29:25.858Z,5.00
2018-09-02T00:31:54.490Z,3.73
2018-09-02T00:34:24.250Z,3.50
2018-09-02T00:36:52.950Z,3.40
2018-09-02T00:39:22.756Z,3.63
2018-09-02T00:41:51.334Z,3.37
2018-09-02T00:44:20.191Z,3.30
2018-09-02T00:46:49.963Z,3.20
2018-09-02T00:49:18.586Z,3.73
2018-09-02T00:51:47.767Z,3.67
2018-09-02T00:54:16.362Z,3.80
2018-09-02T00:56:45.010Z,4.70
2018-09-02T00:59:13.753Z,4.67
2018-09-02T01:01:42.391Z,4.40
2018-09-02T01:04:11.531Z,4.73
2018-09-02T01:06:40.091Z,5.83
2018-09-02T01:09:10.416Z,4.90
2018-09-02T01:11:39.219Z,4.10
2018-09-02T01:14:08.678Z,4.00
2018-09-02T01:16:37.269Z,4.00
2018-09-02T01:19:05.862Z,4.70
2018-09-02T01:21:34.612Z,4.10
2018-09-02T01:24:03.553Z,5.60
2018-09-02T01:26:32.184Z,5.50
2018-09-02T01:29:00.759Z,5.33
2018-09-02T01:31:29.388Z,5.00
2018-09-02T01:33:57.983Z,4.90
2018-09-02T01:36:26.558Z,5.77
2018-09-02T01:38:55.437Z,4.37
2018-09-02T01:41:24.035Z,5.00
2018-09-02T01:43:52.648Z,4.43
2018-09-02T01:46:21.280Z,4.43
2018-09-02T01:48:50.442Z,4.70
2018-09-02T01:51:19.671Z,4.93
2018-09-02T01:53:49.182Z,4.13
2018-09-02T01:56:17.957Z,4.30
2018-09-02T01:58:47.084Z,5.00
2018-09-02T02:01:16.303Z,4.33
2018-09-02T02:03:45.047Z,4.17
2018-09-02T02:06:13.663Z,3.80
2018-09-02T02:08:43.384Z,3.90
2018-09-02T02:11:12.019Z,4.43
2018-09-02T02:13:41.585Z,4.33
2018-09-02T02:16:10.245Z,5.17
2018-09-02T02:18:39.081Z,4.87
2018-09-02T02:21:07.765Z,4.07
2018-09-02T02:23:36.804Z,4.77
2018-09-02T02:26:05.662Z,4.20
2018-09-02T02:28:34.528Z,4.27
2018-09-02T02:31:04.437Z,5.10
2018-09-02T02:33:33.352Z,4.93
2018-09-02T02:36:01.987Z,4.37
2018-09-02T02:38:31.055Z,4.23
2018-09-02T02:41:00.394Z,4.80
2018-09-02T02:43:29.187Z,4.50
2018-09-02T02:45:58.048Z,3.90
2018-09-02T02:48:27.808Z,5.03
2018-09-02T02:50:56.346Z,4.60
2018-09-02T02:53:24.905Z,4.17
2018-09-02T02:55:53.514Z,5.20
2018-09-02T02:58:22.080Z,4.73
2018-09-02T03:00:50.647Z,5.13
2018-09-02T03:03:19.258Z,4.90
2018-09-02T03:05:49.300Z,4.80
2018-09-02T03:08:18.210Z,4.97
2018-09-02T03:10:46.856Z,5.30
2018-09-02T03:13:16.420Z,5.77
2018-09-02T03:15:45.060Z,5.13
2018-09-02T03:18:14.223Z,6.60
2018-09-02T03:20:43.900Z,4.73
2018-09-02T03:23:12.542Z,5.23
2018-09-02T03:25:41.615Z,5.87
2018-09-02T03:28:10.182Z,5.37
2018-09-02T03:30:39.314Z,5.83
2018-09-02T03:33:09.468Z,5.70
2018-09-02T03:35:38.111Z,4.60
2018-09-02T03:38:08.846Z,6.20
2018-09-02T03:40:37.517Z,4.83
2018-09-02T03:43:06.366Z,5.67
2018-09-02T03:45:34.931Z,4.90
2018-09-02T03:48:04.187Z,5.00
2018-09-02T03:50:32.781Z,6.03
2018-09-02T03:53:01.787Z,5.80
2018-09-02T03:55:30.431Z,5.70
2018-09-02T03:57:59.927Z,4.60
2018-09-02T04:00:29.524Z,5.97
2018-09-02T04:02:58.093Z,5.70
2018-09-02T04:05:27.487Z,4.70
2018-09-02T04:07:56.654Z,5.47
2018-09-02T04:10:25.615Z,5.60
2018-09-02T04:12:55.275Z,6.30
2018-09-02T04:15:25.034Z,6.40
2018-09-02T04:17:53.670Z,5.80
2018-09-02T04:20:26.759Z,5.90
2018-09-02T04:22:55.378Z,6.13
2018-09-02T04:25:23.998Z,5.90
2018-09-02T04:27:53.638Z,4.97
2018-09-02T04:30:22.303Z,5.10
2018-09-02T04:32:51.382Z,5.73
2018-09-02T04:35:20.004Z,6.17
2018-09-02T04:37:50.001Z,6.40
2018-09-02T04:40:23.816Z,5.70
2018-09-02T04:42:54.056Z,7.10
2018-09-02T04:45:24.099Z,5.70
2018-09-02T04:47:57.443Z,5.90
2018-09-02T04:50:26.038Z,6.70
2018-09-02T04:52:54.610Z,6.70
2018-09-02T04:55:23.139Z,6.33
2018-09-02T04:57:52.716Z,6.23
2018-09-02T05:00:22.165Z,6.37
2018-09-02T05:02:50.880Z,6.53
2018-09-02T05:05:19.673Z,5.83
2018-09-02T05:07:48.351Z,5.90
2018-09-02T05:10:17.526Z,6.07
2018-09-02T05:12:46.301Z,6.43
2018-09-02T05:15:15.763Z,6.87
2018-09-02T05:17:46.016Z,6.23
2018-09-02T05:20:15.309Z,6.53
2018-09-02T05:22:46.837Z,5.97
2018-09-02T05:25:17.127Z,6.47
2018-09-02T05:27:47.206Z,6.77
2018-09-02T05:30:16.512Z,6.37
2018-09-02T05:32:46.658Z,6.00
2018-09-02T05:35:17.412Z,7.03
2018-09-02T05:37:46.082Z,5.73
2018-09-02T05:40:17.852Z,6.17
2018-09-02T05:42:47.546Z,6.53
2018-09-02T05:45:21.242Z,6.40
2018-09-02T05:47:49.939Z,5.70
2018-09-02T05:50:21.126Z,5.30
2018-09-02T05:52:50.354Z,6.37
2018-09-02T05:55:18.921Z,6.77
2018-09-02T05:57:48.417Z,6.97
2018-09-02T06:00:17.288Z,5.90
2018-09-02T06:02:46.966Z,5.60
2018-09-02T06:05:20.078Z,5.70
2018-09-02T06:07:49.603Z,5.77
2018-09-02T06:10:19.986Z,6.50
2018-09-02T06:12:49.031Z,5.33
2018-09-02T06:15:17.649Z,5.70
2018-09-02T06:17:47.838Z,5.93
2018-09-02T06:20:18.973Z,6.03
2018-09-02T06:22:48.165Z,6.57
2018-09-02T06:25:17.710Z,6.17
2018-09-02T06:27:47.706Z,6.30
2018-09-02T06:30:16.543Z,6.23
2018-09-02T06:32:56.447Z,6.13
2018-09-02T06:35:27.042Z,6.40
2018-09-02T06:37:56.351Z,5.77
2018-09-02T06:40:25.510Z,6.17
2018-09-02T06:42:56.211Z,6.73
2018-09-02T06:45:25.447Z,6.10
2018-09-02T06:47:54.060Z,6.00
2018-09-02T06:50:23.204Z,5.83
2018-09-02T06:52:52.875Z,6.03
2018-09-02T06:55:23.791Z,5.73
2018-09-02T06:57:54.740Z,5.63
2018-09-02T07:00:24.358Z,6.90
2018-09-02T07:02:53.143Z,6.10
2018-09-02T07:05:21.759Z,6.80
2018-09-02T07:07:50.407Z,6.50
2018-09-02T07:10:20.840Z,6.13
2018-09-02T07:12:49.464Z,5.97
2018-09-02T07:15:18.854Z,6.10
2018-09-02T07:17:48.387Z,5.40
2018-09-02T07:20:17.795Z,6.20
2018-09-02T07:22:46.366Z,5.80
2018-09-02T07:25:15.598Z,6.27
2018-09-02T07:27:44.861Z,6.50
2018-09-02T07:30:15.859Z,6.63
2018-09-02T07:32:44.933Z,7.30
2018-09-02T07:35:14.681Z,6.37
2018-09-02T07:37:43.403Z,6.03
2018-09-02T07:40:13.652Z,6.47
2018-09-02T07:42:42.516Z,5.90
2018-09-02T07:45:13.349Z,7.07
2018-09-02T07:47:43.438Z,6.50
2018-09-02T07:50:12.970Z,6.57
2018-09-02T07:52:42.445Z,6.40
2018-09-02T07:55:13.194Z,6.10
2018-09-02T07:57:42.775Z,7.27
2018-09-02T08:00:11.759Z,5.60
2018-09-02T08:02:42.074Z,6.47
2018-09-02T08:05:11.409Z,5.77
2018-09-02T08:07:40.106Z,6.57
2018-09-02T08:10:09.816Z,6.47
2018-09-02T08:12:41.276Z,6.00
2018-09-02T08:15:09.838Z,6.13
2018-09-02T08:17:38.465Z,6.27
2018-09-02T08:20:07.470Z,6.13
2018-09-02T08:22:37.702Z,7.20
2018-09-02T08:25:07.239Z,6.90
2018-09-02T08:27:37.486Z,6.80
2018-09-02T08:30:07.123Z,6.30
2018-09-02T08:32:35.780Z,6.20
2018-09-02T08:35:04.337Z,5.90
2018-09-02T08:37:33.766Z,6.23
2018-09-02T08:40:02.571Z,6.47
2018-09-02T10:17:55.314Z,7.30
2018-09-02T10:20:23.959Z,6.23
2018-09-02T10:22:53.057Z,7.60
2018-09-02T10:25:22.412Z,6.97
2018-09-02T10:27:51.850Z,8.30
2018-09-02T10:30:20.414Z,6.70
2018-09-02T10:32:49.263Z,7.77
2018-09-02T10:35:18.582Z,7.30
2018-09-02T10:37:47.790Z,6.70
2018-09-02T10:40:16.314Z,7.87
2018-09-02T10:42:44.926Z,6.57
2018-09-02T10:45:14.039Z,6.53
2018-09-02T10:47:43.589Z,6.77
2018-09-02T10:50:13.086Z,6.80
2018-09-02T10:52:42.867Z,6.90
2018-09-02T10:55:12.957Z,6.87
2018-09-02T10:57:41.510Z,7.00
2018-09-02T11:00:13.299Z,6.70
2018-09-02T11:02:41.947Z,7.20
2018-09-02T11:05:10.605Z,6.67
2018-09-02T11:07:39.794Z,7.00
2018-09-02T11:10:08.323Z,6.80
2018-09-02T11:12:36.874Z,7.23
2018-09-02T11:15:06.669Z,7.57
2018-09-02T11:17:35.975Z,6.57
2018-09-02T11:20:05.230Z,7.27
2018-09-02T11:22:34.776Z,7.10
2018-09-02T11:25:03.382Z,6.80
2018-09-02T11:27:31.915Z,6.43
2018-09-02T11:30:00.728Z,7.80
2018-09-02T11:32:29.475Z,6.07
2018-09-02T11:34:58.326Z,6.93
2018-09-02T11:37:27.861Z,6.40
2018-09-02T11:39:56.909Z,6.10
2018-09-02T11:42:25.548Z,6.13
2018-09-02T11:44:54.575Z,6.53
2018-09-02T11:47:23.088Z,7.07
2018-09-02T11:49:54.337Z,6.47
2018-09-02T11:52:26.272Z,6.30
2018-09-02T11:54:55.665Z,5.43
2018-09-02T11:57:25.025Z,5.73
2018-09-02T11:59:53.597Z,6.90
2018-09-02T12:02:22.169Z,5.70
2018-09-02T12:04:50.959Z,5.83
2018-09-02T12:07:20.877Z,5.70
2018-09-02T12:09:51.188Z,6.20
2018-09-02T12:12:21.572Z,5.47
2018-09-02T12:14:50.558Z,4.80
2018-09-02T12:17:19.994Z,4.57
2018-09-02T12:19:48.557Z,5.40
2018-09-02T12:22:18.920Z,5.27
2018-09-02T12:24:48.328Z,5.20
2018-09-02T12:27:17.105Z,5.93
2018-09-02T12:29:45.808Z,5.13
2018-09-02T12:32:14.347Z,6.20
2018-09-02T12:34:43.215Z,5.50
2018-09-02T12:37:11.830Z,5.90
2018-09-02T12:39:41.082Z,6.97
2018-09-02T12:42:09.772Z,5.53
2018-09-02T12:44:38.307Z,5.77
2018-09-02T12:47:06.984Z,5.40
2018-09-02T12:49:36.549Z,5.00
2018-09-02T12:52:05.134Z,5.20
2018-09-02T12:54:34.343Z,5.83
2018-09-02T12:57:05.603Z,5.87
2018-09-02T12:59:35.190Z,5.77
2018-09-02T13:02:04.217Z,6.00
2018-09-02T13:04:33.166Z,5.83
2018-09-02T13:07:01.805Z,6.10
2018-09-02T13:09:31.146Z,6.00
2018-09-02T13:12:00.213Z,5.97
2018-09-02T13:14:29.463Z,6.17
2018-09-02T13:16:58.096Z,5.97
2018-09-02T13:19:29.149Z,6.73
2018-09-02T13:21:58.268Z,5.90
2018-09-02T13:24:29.746Z,5.77
2018-09-02T13:26:58.392Z,5.80
2018-09-02T13:29:28.965Z,5.57
2018-09-02T13:31:58.549Z,6.80
2018-09-02T13:34:28.038Z,6.67
2018-09-02T13:36:56.595Z,6.37
2018-09-02T13:39:28.257Z,6.07
2018-09-02T13:41:58.004Z,6.40
2018-09-02T13:44:26.580Z,6.50
2018-09-02T13:46:56.193Z,7.57
2018-09-02T13:49:25.746Z,7.20
2018-09-02T13:51:55.350Z,7.10
2018-09-02T13:54:25.503Z,7.17
2018-09-02T13:56:57.251Z,7.47
2018-09-02T13:59:25.847Z,7.57
2018-09-02T14:01:54.531Z,7.27
2018-09-02T14:04:24.144Z,7.63
2018-09-02T14:06:52.770Z,7.50
2018-09-02T14:09:23.235Z,8.10
2018-09-02T14:11:56.425Z,7.87
2018-09-02T14:17:46.272Z,7.50
2018-09-02T14:20:15.438Z,8.27
2018-09-02T14:22:44.104Z,7.97
2018-09-02T14:25:13.531Z,8.53
2018-09-02T14:27:42.338Z,9.50
2018-09-02T14:30:12.041Z,8.43
2018-09-02T14:32:40.652Z,9.00
2018-09-02T14:35:09.459Z,9.50
2018-09-02T14:37:38.055Z,8.03
2018-09-02T14:40:07.646Z,9.00
2018-09-02T14:42:37.218Z,8.67
2018-09-02T14:45:07.221Z,9.40
2018-09-02T14:47:36.448Z,8.87
2018-09-02T14:50:06.099Z,8.80
2018-09-02T14:52:35.352Z,8.77
2018-09-02T14:55:03.991Z,8.67
2018-09-02T14:57:32.831Z,8.50
2018-09-02T15:00:02.131Z,8.17
2018-09-02T15:02:31.683Z,8.70
2018-09-02T15:05:01.198Z,9.10
2018-09-02T15:07:31.172Z,8.97
2018-09-02T15:10:00.335Z,9.23
2018-09-02T15:12:30.922Z,9.50
2018-09-02T15:14:59.687Z,10.33
2018-09-02T15:17:28.301Z,9.60
2018-09-02T15:19:56.954Z,9.40
2018-09-02T15:22:28.836Z,8.83
2018-09-02T15:24:57.570Z,8.90
2018-09-02T15:27:28.443Z,10.10
2018-09-02T15:29:57.654Z,10.97
2018-09-02T15:32:27.902Z,9.87
2018-09-02T15:34:57.433Z,10.00
2018-09-02T15:37:26.092Z,11.37
2018-09-02T15:39:55.216Z,10.13
2018-09-02T15:42:25.321Z,10.57
2018-09-02T15:44:53.919Z,10.40
2018-09-02T15:47:24.482Z,9.90
2018-09-02T15:49:53.178Z,10.63
2018-09-02T15:52:23.218Z,10.50
2018-09-02T15:54:51.786Z,10.87
2018-09-02T15:57:20.662Z,11.37
2018-09-02T15:59:50.050Z,10.93
2018-09-02T16:02:19.198Z,10.87
2018-09-02T16:04:48.759Z,11.27
2018-09-02T16:07:18.826Z,11.87
2018-09-02T16:09:48.078Z,10.57
2018-09-02T16:12:19.220Z,10.60
2018-09-02T16:14:47.865Z,10.80
2018-09-02T16:17:17.431Z,11.80
2018-09-02T16:19:46.538Z,10.57
2018-09-02T16:22:16.291Z,12.20
2018-09-02T16:24:44.923Z,11.03
2018-09-02T16:27:13.551Z,10.87
2018-09-02T16:29:42.979Z,11.33
2018-09-02T16:32:11.946Z,11.70
2018-09-02T16:34:41.893Z,11.67
2018-09-02T16:37:11.104Z,11.30
2018-09-02T16:39:45.843Z,10.73
2018-09-02T16:42:14.835Z,11.17
2018-09-02T16:44:44.101Z,10.40
2018-09-02T16:48:38.321Z,11.23
2018-09-02T16:51:06.978Z,10.80
2018-09-02T16:53:36.445Z,9.80
2018-09-02T16:56:09.788Z,11.63
2018-09-02T16:58:38.433Z,11.57
2018-09-02T17:01:07.001Z,10.23
2018-09-02T17:03:38.665Z,9.97
2018-09-02T17:06:07.283Z,10.60
2018-09-02T17:08:35.797Z,10.97
2018-09-02T17:11:04.997Z,10.07
2018-09-02T17:13:34.590Z,9.23
2018-09-02T17:16:03.375Z,9.97
2018-09-02T17:18:34.505Z,10.57
2018-09-02T17:21:04.180Z,11.03
2018-09-02T17:23:32.723Z,11.13
2018-09-02T17:26:01.307Z,11.50
2018-09-02T17:28:30.626Z,11.63
2018-09-02T17:31:01.032Z,10.37
2018-09-02T17:33:30.290Z,11.60
2018-09-02T17:36:00.757Z,10.77
2018-09-02T17:38:30.281Z,10.60
2018-09-02T17:40:59.340Z,12.23
2018-09-02T17:43:28.644Z,10.50
2018-09-02T17:45:57.403Z,9.90
2018-09-02T17:48:28.095Z,9.70
2018-09-02T17:50:57.702Z,10.77
2018-09-02T17:53:26.833Z,10.43
2018-09-02T17:55:55.483Z,9.90
2018-09-02T17:58:25.209Z,11.73
2018-09-02T18:00:55.643Z,10.50
2018-09-02T18:03:24.253Z,9.77
2018-09-02T18:05:53.598Z,11.00
2018-09-02T18:08:22.235Z,11.23
2018-09-02T18:10:53.073Z,11.97
2018-09-02T18:13:21.760Z,10.60
2018-09-02T18:15:50.551Z,10.07
2018-09-02T18:18:20.040Z,10.80
2018-09-02T18:20:49.682Z,9.80
2018-09-02T18:23:18.914Z,10.63
2018-09-02T18:25:47.813Z,10.37
2018-09-02T18:28:20.048Z,9.70
2018-09-02T18:30:49.232Z,9.57
2018-09-02T18:33:18.481Z,10.10
2018-09-02T18:35:47.310Z,9.57
2018-09-02T18:38:16.037Z,10.00
2018-09-02T18:40:45.774Z,9.10
2018-09-02T18:43:14.340Z,10.07
2018-09-02T18:45:42.813Z,10.40
2018-09-02T18:48:12.196Z,11.83
2018-09-02T18:50:41.433Z,10.23
2018-09-02T18:53:15.083Z,10.47
2018-09-02T18:55:44.923Z,10.27
2018-09-02T18:58:13.880Z,9.80
2018-09-02T19:00:43.808Z,9.93
2018-09-02T19:03:17.590Z,10.50
2018-09-02T19:05:47.794Z,8.30
2018-09-02T19:08:17.797Z,9.20
2018-09-02T19:10:51.423Z,9.27
2018-09-02T19:13:20.687Z,9.43
2018-09-02T19:15:49.247Z,9.57
2018-09-02T19:18:18.675Z,9.30
2018-09-02T19:20:49.907Z,9.77
2018-09-02T19:23:19.398Z,10.30
2018-09-02T19:25:48.486Z,8.57
2018-09-02T19:28:17.676Z,9.20
2018-09-02T19:30:49.417Z,9.57
2018-09-02T19:33:18.404Z,11.57
2018-09-02T19:35:46.977Z,9.73
2018-09-02T19:38:16.794Z,10.40
2018-09-02T19:40:45.917Z,10.07
2018-09-02T19:43:16.065Z,10.20
2018-09-02T19:45:45.033Z,10.47
2018-09-02T19:48:13.634Z,10.93
2018-09-02T19:50:44.013Z,11.27
2018-09-02T19:53:13.221Z,11.13
2018-09-02T19:55:43.536Z,11.00
2018-09-02T19:58:12.462Z,11.23
2018-09-02T20:00:41.498Z,11.63
2018-09-02T20:03:11.367Z,11.20
2018-09-02T20:05:39.970Z,11.50
2018-09-02T20:08:08.809Z,12.60
2018-09-02T20:10:38.284Z,12.00
2018-09-02T20:13:06.946Z,11.47
2018-09-02T20:15:36.488Z,11.70
2018-09-02T20:18:08.752Z,11.10
2018-09-02T20:20:37.509Z,11.03
2018-09-02T20:23:07.575Z,10.87
2018-09-02T20:25:36.695Z,11.50
2018-09-02T20:28:06.505Z,12.40
2018-09-02T20:30:36.586Z,11.63
2018-09-02T20:33:05.900Z,11.30
2018-09-02T20:35:34.427Z,11.23
2018-09-02T20:38:03.514Z,12.60
2018-09-02T20:40:32.004Z,11.90
2018-09-02T20:43:01.033Z,13.53
2018-09-02T20:45:29.609Z,14.80
2018-09-02T20:47:59.299Z,12.93
2018-09-02T20:50:27.922Z,13.50
2018-09-02T20:52:56.496Z,15.03
2018-09-02T20:55:27.966Z,14.50
2018-09-02T20:57:56.575Z,14.90
2018-09-02T21:00:25.664Z,13.77
2018-09-02T21:02:55.269Z,13.60
2018-09-02T21:05:24.794Z,13.83
2018-09-02T21:07:53.314Z,15.23
2018-09-02T21:10:21.849Z,15.30
2018-09-02T21:12:51.355Z,15.40
2018-09-02T21:15:20.881Z,15.17
2018-09-02T21:17:50.259Z,13.80
2018-09-02T21:20:18.785Z,12.47
2018-09-02T21:22:47.545Z,13.60
2018-09-02T21:25:16.018Z,13.10
2018-09-02T21:27:44.666Z,12.90
2018-09-02T21:30:16.166Z,13.30
2018-09-02T21:32:45.665Z,14.23
2018-09-02T21:35:16.245Z,13.13
2018-09-02T21:37:46.091Z,13.43
2018-09-02T21:40:14.612Z,13.30
2018-09-02T21:42:43.866Z,14.03
2018-09-02T21:45:13.127Z,14.57
2018-09-02T21:47:42.052Z,14.30
2018-09-02T21:50:12.157Z,14.00
2018-09-02T21:52:41.132Z,13.00
2018-09-02T21:55:10.813Z,13.27
2018-09-02T21:57:40.273Z,12.90
2018-09-02T22:00:14.174Z,13.80
2018-09-02T22:02:43.254Z,13.80
2018-09-02T22:05:13.068Z,13.57
2018-09-02T22:07:43.240Z,13.70
2018-09-02T22:10:12.738Z,14.00
2018-09-02T22:12:41.260Z,13.60
2018-09-02T22:15:11.084Z,12.47
2018-09-02T22:17:40.397Z,12.47
2018-09-02T22:20:10.071Z,12.00
2018-09-02T22:22:39.705Z,11.10
2018-09-02T22:25:09.298Z,11.57
2018-09-02T22:27:38.014Z,11.17
2018-09-02T22:30:08.661Z,11.83
2018-09-02T22:35:20.398Z,11.40
2018-09-02T22:37:49.303Z,11.70
2018-09-02T22:40:18.149Z,12.70
2018-09-02T22:42:47.843Z,11.73
2018-09-02T22:45:16.363Z,12.97
2018-09-02T22:47:44.986Z,11.50
2018-09-02T22:50:13.846Z,12.10
2018-09-02T22:52:42.394Z,10.90
2018-09-02T22:55:10.910Z,10.03
2018-09-02T22:57:39.479Z,10.60
2018-09-02T23:00:08.842Z,13.37
2018-09-02T23:02:37.379Z,13.87
2018-09-02T23:05:05.931Z,14.60
2018-09-02T23:07:35.185Z,15.37
2018-09-02T23:10:03.739Z,16.23
2018-09-02T23:12:32.334Z,17.03
2018-09-02T23:15:00.888Z,15.93
2018-09-02T23:17:29.857Z,16.53
2018-09-02T23:19:59.145Z,17.67
2018-09-02T23:22:30.405Z,17.07
2018-09-02T23:25:00.180Z,17.60
2018-09-02T23:27:29.306Z,16.63
2018-09-02T23:29:58.525Z,16.90
2018-09-02T23:32:27.047Z,16.50
2018-09-02T23:34:56.577Z,16.07
2018-09-02T23:37:25.133Z,15.20
2018-09-02T23:39:54.751Z,17.20
2018-09-02T23:42:23.314Z,16.10
2018-09-02T23:44:52.150Z,16.27
2018-09-02T23:47:20.766Z,16.63
2018-09-02T23:49:49.507Z,16.87
2018-09-02T23:52:18.374Z,18.07
2018-09-02T23:54:46.930Z,17.63
2018-09-02T23:57:15.454Z,16.30
2018-09-02T23:59:43.990Z,17.77
